Weather reports worldwide

Advertisment
Heino aws, Netherlands (6278): temperature & dewpoint: 14.10.2019 22:00:00 - 20.10.2019 22:00:00 (CEST)Heino aws, Netherlands (6278): temperature 5cm: 14.10.2019 22:00:00 - 20.10.2019 22:00:00 (CEST)Heino aws, Netherlands (6278): wind speed & gusts: 14.10.2019 22:00:00 - 20.10.2019 22:00:00 (CEST)Heino aws, Netherlands (6278): wind direction: 14.10.2019 22:00:00 - 20.10.2019 22:00:00 (CEST)Heino aws, Netherlands (6278): precipitation: 14.10.2019 22:00:00 - 20.10.2019 22:00:00 (CEST)
Date & Time tt [°C] td [°C] tt 5cm [°C] ff [km/h] ff [kn] fx [km/h] fx [kn] dd rr [mm]
20.10.2019 22:00:00 11,1 10,5 10,8 7 4 14 8 NNE 0,0
20.10.2019 21:00:00 11,3 11,1 11,1 7 4 11 6 NNE 0,0
20.10.2019 20:00:00 11,3 11,1 11,1 7 4 11 6 NNE 0,0
20.10.2019 19:00:00 11,4 11,2 10,9 4 2 11 6 N 0,0
20.10.2019 18:00:00 11,7 11,3 11,5 7 4 11 6 ENE 0,0
20.10.2019 17:00:00 12,1 11,6 12,3 4 2 11 6 ENE 0,0
20.10.2019 16:00:00 12,2 11,5 12,5 7 4 11 6 ESE 0,0
20.10.2019 15:00:00 12,2 11,2 12,4 4 2 4 2 E 0,1
20.10.2019 14:00:00 12,0 10,9 12,2 0 0 11 6 N 0,0
20.10.2019 13:00:00 11,6 10,8 11,9 4 2 11 6 SE 0,0
20.10.2019 12:00:00 11,2 10,7 11,4 4 2 11 6 S 0,0
20.10.2019 11:00:00 10,5 10,4 10,7 4 2 11 6 S 0,0
20.10.2019 10:00:00 9,9 9,9 10,3 4 2 11 6 S 0,0
20.10.2019 09:00:00 8,4 8,4 6,2 4 2 11 6 SSE 0,0
20.10.2019 08:00:00 7,8 7,8 5,3 4 2 11 6 SSE 0,0
20.10.2019 07:00:00 9,0 8,8 6,9 4 2 11 6 SW 0,0
20.10.2019 06:00:00 9,4 9,3 8,8 7 4 11 6 S 0,0
20.10.2019 05:00:00 9,3 9,3 8,3 7 4 11 6 S 0,0
20.10.2019 04:00:00 9,4 9,4 8,4 7 4 14 8 SSE 0,0
20.10.2019 03:00:00 9,8 9,5 9,2 7 4 14 8 S 0,0
20.10.2019 02:00:00 9,7 9,5 9,1 7 4 14 8 S 0,0
20.10.2019 01:00:00 9,7 9,4 8,6 7 4 14 8 S 0,0
20.10.2019 00:00:00 10,2 9,7 8,9 7 4 18 10 S 0,0
19.10.2019 23:00:00 10,7 10,0 9,7 7 4 18 10 S 0,0
19.10.2019 22:00:00 10,7 10,2 9,8 7 4 14 8 S 0,0
19.10.2019 21:00:00 10,6 10,0 9,5 7 4 14 8 S 0,0
19.10.2019 20:00:00 10,7 9,9 8,9 7 4 14 8 S 0,0
19.10.2019 19:00:00 11,6 10,0 10,6 7 4 14 8 S 0,0
19.10.2019 18:00:00 12,6 10,2 12,1 7 4 14 8 S 0,0
19.10.2019 17:00:00 12,9 9,9 12,8 7 4 22 12 S 0,0
19.10.2019 16:00:00 13,3 9,9 13,2 11 6 22 12 SSW 0,0
19.10.2019 15:00:00 13,8 9,9 14,0 14 8 29 16 SSW 0,0
19.10.2019 14:00:00 13,6 11,5 13,9 14 8 25 14 SSW 0,1
19.10.2019 13:00:00 12,0 11,2 12,1 11 6 29 16 SW 0,1
19.10.2019 12:00:00 12,4 11,6 12,9 11 6 18 10 S 0,0
19.10.2019 11:00:00 11,4 11,1 11,5 4 2 18 10 SSW 2,5
19.10.2019 10:00:00 11,1 10,6 11,2 11 6 25 14 S 0,3
19.10.2019 09:00:00 11,0 10,0 10,9 11 6 25 14 S 0,0
19.10.2019 08:00:00 10,7 9,7 10,4 11 6 25 14 S 0,1
19.10.2019 07:00:00 10,7 9,1 10,3 11 6 25 14 S 0,0
19.10.2019 06:00:00 10,5 8,6 10,0 14 8 25 14 S 0,1
19.10.2019 05:00:00 10,3 7,9 9,7 11 6 22 12 S 0,0
19.10.2019 04:00:00 9,9 7,4 8,8 11 6 25 14 S 0,0
19.10.2019 03:00:00 9,9 7,3 8,9 11 6 22 12 S 0,0
19.10.2019 02:00:00 10,1 7,3 9,0 11 6 18 10 S 0,0
19.10.2019 01:00:00 10,2 7,3 9,1 11 6 22 12 S 0,0
19.10.2019 00:00:00 10,6 7,3 9,7 11 6 25 14 SSW 0,0
18.10.2019 23:00:00 10,8 7,4 9,8 11 6 25 14 SSW 0,0
18.10.2019 22:00:00 11,1 7,6 10,2 14 8 29 16 SSW 0,0
18.10.2019 21:00:00 11,3 7,8 10,3 11 6 32 18 SSW 0,0
18.10.2019 20:00:00 12,0 7,2 11,1 14 8 36 19 SSW 0,0
18.10.2019 19:00:00 12,3 7,3 11,3 18 10 32 18 SSW 0,0
18.10.2019 18:00:00 12,7 7,7 12,0 18 10 47 25 SW 0,0
18.10.2019 17:00:00 13,7 7,7 13,3 29 16 50 27 SW 0,0
18.10.2019 16:00:00 13,7 8,3 12,8 25 14 50 27 SW 0,0
18.10.2019 15:00:00 12,7 8,6 12,7 22 12 47 25 SW 0,0
18.10.2019 14:00:00 12,9 9,6 13,1 22 12 40 21 SSW 0,0
18.10.2019 13:00:00 12,8 11,3 12,3 14 8 43 23 S 3,7
18.10.2019 12:00:00 14,4 12,0 14,4 18 10 36 19 S 1,1
18.10.2019 11:00:00 14,5 11,8 14,4 14 8 29 16 S 0,0
18.10.2019 10:00:00 13,8 11,8 14,0 14 8 29 16 S 0,0
18.10.2019 09:00:00 12,5 11,6 11,9 11 6 22 12 S 0,0
18.10.2019 08:00:00 12,0 11,4 11,3 7 4 18 10 S 0,0
18.10.2019 07:00:00 12,2 11,6 11,8 11 6 18 10 S 0,1
18.10.2019 06:00:00 12,2 11,6 11,6 11 6 18 10 SSE 0,2
18.10.2019 05:00:00 11,8 11,4 11,2 7 4 18 10 S 0,0
18.10.2019 04:00:00 12,1 11,8 11,7 11 6 22 12 S 0,0
18.10.2019 03:00:00 11,9 11,7 11,5 7 4 18 10 SSE 0,0
18.10.2019 02:00:00 11,3 11,1 9,8 7 4 11 6 SE 0,0
18.10.2019 01:00:00 12,6 11,6 12,3 7 4 22 12 S 0,0
18.10.2019 00:00:00 12,5 11,6 12,1 7 4 14 8 S 0,0
17.10.2019 23:00:00 12,5 11,7 12,4 11 6 22 12 SSW 0,0
17.10.2019 22:00:00 12,4 11,9 12,3 7 4 14 8 SSW 0,0
17.10.2019 21:00:00 12,3 11,9 11,3 7 4 14 8 SSE 0,0
17.10.2019 20:00:00 13,4 12,2 13,1 7 4 11 6 S 0,0
17.10.2019 19:00:00 13,6 12,2 13,2 4 2 11 6 SSE 0,0
17.10.2019 18:00:00 14,6 11,6 14,3 4 2 11 6 SSE 0,0
17.10.2019 17:00:00 15,4 10,8 15,3 7 4 18 10 S 0,0
17.10.2019 16:00:00 16,1 12,1 16,1 7 4 25 14 S 0,0
17.10.2019 15:00:00 16,1 11,6 16,2 14 8 22 12 SSW 0,0
17.10.2019 14:00:00 15,1 12,9 15,7 7 4 18 10 S 0,0
17.10.2019 13:00:00 14,5 12,5 15,3 7 4 14 8 SSW 0,0
17.10.2019 12:00:00 14,0 12,3 15,2 7 4 14 8 S 0,0
17.10.2019 11:00:00 13,1 12,3 13,7 7 4 11 6 SSW 0,0
17.10.2019 10:00:00 12,3 11,9 12,6 4 2 11 6 SE 0,0
17.10.2019 09:00:00 11,9 11,5 11,9 11 6 25 14 W 0,3
17.10.2019 08:00:00 12,2 12,0 12,3 14 8 29 16 W 0,4
17.10.2019 07:00:00 13,8 13,6 13,7 11 6 22 12 SSW 0,1
17.10.2019 06:00:00 13,6 13,5 13,6 11 6 22 12 SSW 0,1
17.10.2019 05:00:00 13,5 13,3 13,5 11 6 22 12 SSW 0,1
17.10.2019 04:00:00 13,5 13,3 13,5 11 6 25 14 SSW 0,0
17.10.2019 03:00:00 13,6 13,3 13,5 11 6 25 14 S 0,2
17.10.2019 02:00:00 13,7 13,3 13,6 11 6 29 16 SSW 0,6
17.10.2019 01:00:00 13,8 13,7 13,8 11 6 22 12 SSW 0,3
17.10.2019 00:00:00 13,8 13,8 13,8 11 6 22 12 S 0,9
16.10.2019 23:00:00 13,8 13,6 13,7 11 6 25 14 S 2,0
16.10.2019 22:00:00 13,8 13,6 13,8 11 6 25 14 S 1,8
16.10.2019 21:00:00 13,8 13,5 13,7 11 6 22 12 S 0,8
16.10.2019 20:00:00 13,7 13,6 13,7 11 6 25 14 S 0,1
16.10.2019 19:00:00 13,6 13,4 13,5 11 6 22 12 S 0,3
16.10.2019 18:00:00 13,4 13,2 13,4 11 6 18 10 SSE 0,1
16.10.2019 17:00:00 13,4 13,0 13,7 11 6 22 12 S 0,0
16.10.2019 16:00:00 13,9 12,3 14,1 11 6 29 16 S 0,0
16.10.2019 15:00:00 14,4 11,6 14,7 11 6 32 18 S 0,0
16.10.2019 14:00:00 14,7 11,3 14,9 11 6 36 19 S 0,0
16.10.2019 13:00:00 15,0 11,8 15,4 14 8 29 16 S 0,0
16.10.2019 12:00:00 14,4 11,2 15,4 14 8 25 14 S 0,0
16.10.2019 11:00:00 13,3 11,1 14,1 11 6 22 12 S 0,0
16.10.2019 10:00:00 12,0 10,9 12,1 7 4 22 12 SSW 0,0
16.10.2019 09:00:00 11,3 10,5 11,2 14 8 25 14 SSW 0,0
16.10.2019 08:00:00 11,3 10,7 11,1 14 8 25 14 SSW 0,0
16.10.2019 07:00:00 11,4 10,9 11,0 7 4 18 10 S 0,0
16.10.2019 06:00:00 11,8 11,5 11,5 7 4 14 8 SSW 0,0
16.10.2019 05:00:00 12,2 11,8 11,9 7 4 14 8 SSW 0,0
16.10.2019 04:00:00 12,5 12,1 12,3 7 4 14 8 SSW 0,4
16.10.2019 03:00:00 12,8 12,5 12,7 11 6 14 8 SW 0,1
16.10.2019 02:00:00 13,0 12,8 12,8 7 4 22 12 SW 0,2
16.10.2019 01:00:00 13,2 12,9 12,9 7 4 18 10 WSW 0,7
16.10.2019 00:00:00 13,5 13,4 13,3 7 4 14 8 WSW 0,6
15.10.2019 23:00:00 13,6 13,5 13,5 11 6 18 10 SW 0,9
15.10.2019 22:00:00 13,9 13,6 13,7 4 2 11 6 SW 0,7
15.10.2019 21:00:00 14,2 14,1 14,1 4 2 11 6 SSW 1,0
15.10.2019 20:00:00 14,4 14,0 14,1 4 2 11 6 SSW 0,5
15.10.2019 19:00:00 15,0 13,7 14,5 7 4 11 6 S 0,0
15.10.2019 18:00:00 15,6 13,4 15,2 7 4 11 6 S 0,0
15.10.2019 17:00:00 16,4 13,2 16,2 7 4 14 8 SSW 0,0
15.10.2019 16:00:00 17,3 12,9 18,0 11 6 18 10 SSW 0,0
15.10.2019 15:00:00 17,0 13,6 17,1 7 4 18 10 SSW 0,0
15.10.2019 14:00:00 16,5 13,3 16,8 11 6 22 12 SW 0,0
15.10.2019 13:00:00 16,4 13,3 - 11 6 22 12 SW 0,0
15.10.2019 12:00:00 16,1 13,6 16,3 7 4 14 8 SSW 0,0
15.10.2019 11:00:00 15,4 13,3 15,2 7 4 14 8 SSW 0,0
15.10.2019 10:00:00 15,2 13,4 15,1 7 4 14 8 SSW 0,0
15.10.2019 09:00:00 14,4 12,8 13,0 7 4 14 8 SW 0,0
15.10.2019 08:00:00 14,5 12,9 13,0 7 4 14 8 SSW 0,0
15.10.2019 07:00:00 14,0 13,0 12,4 7 4 11 6 SW 0,0
15.10.2019 06:00:00 15,5 13,2 13,8 7 4 14 8 SW 0,0
15.10.2019 05:00:00 16,3 13,7 15,1 7 4 18 10 S 0,0
15.10.2019 04:00:00 16,4 14,0 14,8 7 4 14 8 S 0,0
15.10.2019 03:00:00 16,1 14,0 14,6 7 4 14 8 SSE 0,0
15.10.2019 02:00:00 14,6 13,6 12,1 7 4 11 6 SE 0,0
15.10.2019 01:00:00 13,2 13,1 11,9 7 4 11 6 E 0,0
15.10.2019 00:00:00 14,2 13,9 13,2 7 4 11 6 E 0,0
14.10.2019 23:00:00 15,7 14,6 14,8 4 2 18 10 ESE 0,0
14.10.2019 22:00:00 16,2 14,9 15,8 14 8 25 14 E 0,0

tt = temperature
td = dewpoint
tt 5cm = temperature 5cm
ff = wind speed
fx = gusts
dd = wind direction
rr = precipitation

Next stations